Time;durP1;ratioP1;P1;durP2;ratioP2;P2;SDS_P1;SDS_P2;PMS_P1;PMS_P2;Temp;Humidity;BMP_temperature;BMP_pressure;BME280_temperature;BME280_humidity;BME280_pressure;Samples;Min_cycle;Max_cycle;Signal;HPM_P1;HPM_P2
2022/09/29 00:01:43;;;;;;;8.77;5.20;;;;;;;7.22;100.00;100063.03;5088865;28;20051;-60
2022/09/29 00:04:08;;;;;;;12.25;5.65;;;;;;;7.19;100.00;100056.09;5089554;28;20028;-60
2022/09/29 00:06:34;;;;;;;8.98;5.30;;;;;;;7.15;100.00;100067.59;5086117;28;20060;-61
2022/09/29 00:08:59;;;;;;;9.73;5.93;;;;;;;7.10;100.00;100059.03;5088138;28;20035;-61
2022/09/29 00:11:24;;;;;;;5.95;5.03;;;;;;;7.03;100.00;100061.84;5088657;28;20682;-61
2022/09/29 00:13:50;;;;;;;6.82;4.88;;;;;;;7.02;100.00;100056.66;5078245;28;20549;-62
2022/09/29 00:16:15;;;;;;;6.13;5.28;;;;;;;6.99;100.00;100057.63;5068660;28;20024;-61
2022/09/29 00:18:40;;;;;;;6.97;5.30;;;;;;;6.96;100.00;100062.94;5066070;28;20123;-61
2022/09/29 00:21:10;;;;;;;9.88;6.25;;;;;;;6.94;100.00;100055.13;5068160;28;20028;-61
2022/09/29 00:23:35;;;;;;;9.65;5.50;;;;;;;6.93;100.00;100053.41;5067558;28;20398;-62
2022/09/29 00:26:02;;;;;;;12.65;5.72;;;;;;;6.93;100.00;100049.94;5068741;28;20025;-61
2022/09/29 00:28:28;;;;;;;9.73;5.28;;;;;;;6.90;100.00;100056.16;5069567;28;20028;-60
2022/09/29 00:30:53;;;;;;;6.05;5.38;;;;;;;6.88;100.00;100054.47;5086368;28;20024;-61
2022/09/29 00:33:18;;;;;;;8.48;5.47;;;;;;;6.86;100.00;100054.50;5087869;28;20047;-63
2022/09/29 00:35:44;;;;;;;9.38;5.78;;;;;;;6.86;100.00;100056.28;5088068;28;20042;-60
2022/09/29 00:38:09;;;;;;;8.93;5.28;;;;;;;6.83;100.00;100058.09;5087185;28;20073;-60
2022/09/29 00:40:34;;;;;;;8.50;5.43;;;;;;;6.81;100.00;100054.66;5087370;28;20036;-60
2022/09/29 00:43:00;;;;;;;7.97;5.47;;;;;;;6.83;100.00;100054.59;5088462;28;20016;-62
2022/09/29 00:45:25;;;;;;;7.90;5.78;;;;;;;6.82;100.00;100061.63;5079458;28;20032;-60
2022/09/29 00:48:05;;;;;;;8.82;5.97;;;;;;;6.82;100.00;100059.00;5068346;28;20029;-60
2022/09/29 00:50:41;;;;;;;9.23;5.78;;;;;;;6.81;100.00;100054.66;5055934;28;20035;-60
2022/09/29 00:53:11;;;;;;;11.65;6.25;;;;;;;6.80;100.00;100058.19;5088531;28;20036;-60
2022/09/29 00:55:42;;;;;;;13.48;6.57;;;;;;;6.82;100.00;100055.50;5080612;28;20029;-61
2022/09/29 00:58:36;;;;;;;7.10;6.05;;;;;;;6.80;100.00;100057.31;5066509;28;20028;-60
2022/09/29 01:01:03;;;;;;;8.98;6.28;;;;;;;6.81;100.00;100059.88;5066597;28;20044;-60
2022/09/29 01:03:32;;;;;;;9.40;6.50;;;;;;;6.80;100.00;100057.31;5086817;28;20059;-61
2022/09/29 01:06:00;;;;;;;10.63;6.40;;;;;;;6.79;100.00;100056.47;5079148;28;20135;-61
2022/09/29 01:10:56;;;;;;;14.73;6.93;;;;;;;6.82;100.00;100058.13;5023521;28;20053;-60
2022/09/29 01:13:21;;;;;;;11.15;6.75;;;;;;;6.80;100.00;100049.44;5027195;28;20038;-61
2022/09/29 01:15:47;;;;;;;10.27;7.28;;;;;;;6.82;100.00;100048.53;5025500;28;20068;-61
2022/09/29 01:18:12;;;;;;;12.95;7.70;;;;;;;6.81;100.00;100049.41;5028533;28;20026;-62
2022/09/29 01:21:14;;;;;;;12.70;7.75;;;;;;;6.84;100.00;100051.09;5026455;28;20075;-61
2022/09/29 01:23:51;;;;;;;10.75;6.68;;;;;;;6.79;100.00;100053.84;5004429;28;20056;-61
2022/09/29 01:26:36;;;;;;;12.40;7.05;;;;;;;6.77;100.00;100050.41;5026493;28;20124;-62
2022/09/29 01:29:29;;;;;;;9.65;6.88;;;;;;;6.76;100.00;100051.31;5025713;28;20034;-62
2022/09/29 01:32:16;;;;;;;14.35;6.93;;;;;;;6.73;100.00;100051.41;5058001;28;20040;-62
2022/09/29 01:34:53;;;;;;;9.32;7.05;;;;;;;6.73;100.00;100056.66;5027285;28;20086;-61
2022/09/29 01:37:58;;;;;;;9.20;7.80;;;;;;;6.79;100.00;100048.63;5026509;28;20037;-62
2022/09/29 01:40:53;;;;;;;9.93;7.03;;;;;;;6.78;100.00;100051.28;5022841;28;20087;-63
2022/09/29 01:43:42;;;;;;;11.05;7.80;;;;;;;6.78;100.00;100053.91;5026725;28;20048;-64
2022/09/29 01:46:12;;;;;;;14.80;7.32;;;;;;;6.77;100.00;100058.25;5008634;28;20148;-61
2022/09/29 01:48:41;;;;;;;12.00;8.68;;;;;;;6.79;100.00;100050.38;5025355;28;20021;-63
2022/09/29 01:51:11;;;;;;;13.20;8.55;;;;;;;6.80;100.00;100060.78;5027961;28;20025;-62
2022/09/29 01:53:45;;;;;;;14.32;9.80;;;;;;;6.85;100.00;100049.31;5023088;28;20033;-60
2022/09/29 01:56:18;;;;;;;15.07;10.25;;;;;;;6.87;100.00;100052.75;5027754;28;20030;-63
2022/09/29 01:59:10;;;;;;;19.55;10.93;;;;;;;6.87;100.00;100052.75;5028143;28;20037;-63
2022/09/29 02:01:38;;;;;;;18.95;11.52;;;;;;;6.87;100.00;100058.84;5027977;28;20088;-60
2022/09/29 02:04:08;;;;;;;15.15;10.80;;;;;;;6.86;100.00;100054.50;5024404;28;20030;-61
2022/09/29 02:06:37;;;;;;;20.13;11.00;;;;;;;6.82;100.00;100055.50;5026501;28;20083;-60
2022/09/29 02:09:07;;;;;;;12.60;10.25;;;;;;;6.82;100.00;100050.28;5025805;28;20487;-59
2022/09/29 02:11:34;;;;;;;13.82;9.95;;;;;;;6.81;100.00;100044.16;5026536;28;20384;-60
2022/09/29 02:14:09;;;;;;;17.10;10.68;;;;;;;6.83;100.00;100047.59;5019215;28;20033;-65
2022/09/29 02:16:38;;;;;;;16.25;10.05;;;;;;;6.79;100.00;100051.22;5027039;28;20030;-62
2022/09/29 02:19:06;;;;;;;;;;;;;;;6.79;100.00;100051.22;5025887;28;20025;-61
2022/09/29 02:21:32;;;;;;;13.90;9.27;;;;;;;6.82;100.00;100051.13;5042549;28;20421;-61
2022/09/29 02:23:58;;;;;;;17.40;11.75;;;;;;;6.79;100.00;100040.75;5057831;28;20028;-62
2022/09/29 02:26:24;;;;;;;18.20;12.10;;;;;;;6.81;100.00;100049.41;5026300;28;20029;-62
2022/09/29 02:28:51;;;;;;;19.13;12.20;;;;;;;6.80;100.00;100049.44;5025797;28;20044;-62
2022/09/29 02:31:17;;;;;;;18.35;12.07;;;;;;;6.77;100.00;100053.03;5008928;28;20018;-61
2022/09/29 02:33:43;;;;;;;33.85;20.60;;;;;;;6.78;100.00;100051.28;5022874;28;20115;-61
2022/09/29 02:36:30;;;;;;;31.63;20.25;;;;;;;6.76;100.00;100056.56;5018644;28;20117;-60
2022/09/29 02:38:59;;;;;;;34.25;20.73;;;;;;;6.77;100.00;100055.66;5022263;28;20036;-61
2022/09/29 02:41:32;;;;;;;42.80;22.77;;;;;;;6.77;100.00;100053.03;5026249;28;20057;-62
2022/09/29 02:44:31;;;;;;;36.88;21.80;;;;;;;6.79;100.00;100051.22;5024040;28;20018;-60
2022/09/29 02:47:15;;;;;;;37.38;21.88;;;;;;;6.85;100.00;100049.31;5026322;28;20666;-63
2022/09/29 02:50:05;;;;;;;37.35;20.38;;;;;;;6.81;100.00;100052.03;5024164;28;20107;-61
2022/09/29 02:52:55;;;;;;;31.98;18.45;;;;;;;6.78;100.00;100046.91;5025011;28;20025;-61
2022/09/29 02:55:30;;;;;;;28.42;18.38;;;;;;;6.77;100.00;100052.19;5025896;28;20044;-61
2022/09/29 02:58:00;;;;;;;26.80;17.02;;;;;;;6.77;100.00;100046.94;5021118;28;20030;-62
2022/09/29 03:00:25;;;;;;;32.33;18.10;;;;;;;6.75;100.00;100049.63;5005524;28;20037;-62
2022/09/29 03:02:51;;;;;;;29.05;17.77;;;;;;;6.77;100.00;100052.19;5007366;28;20026;-62
2022/09/29 03:05:19;;;;;;;29.08;16.52;;;;;;;6.76;100.00;100055.69;5010088;28;20476;-61
2022/09/29 03:07:44;;;;;;;24.55;14.27;;;;;;;6.72;100.00;100060.19;5011676;28;20022;-62
2022/09/29 03:10:11;;;;;;;20.25;13.70;;;;;;;6.68;100.00;100054.16;5028263;28;20054;-62
2022/09/29 03:12:36;;;;;;;20.52;14.00;;;;;;;6.66;100.00;100061.22;5030662;28;20112;-61
2022/09/29 03:15:02;;;;;;;22.17;14.95;;;;;;;6.63;100.00;100060.44;5029226;28;20100;-60
2022/09/29 03:17:28;;;;;;;21.83;13.40;;;;;;;6.59;100.00;100069.31;5030625;28;20099;-61
2022/09/29 03:19:53;;;;;;;19.42;12.65;;;;;;;6.53;100.00;100065.97;5027998;28;20104;-62
2022/09/29 03:22:19;;;;;;;23.67;16.05;;;;;;;6.53;100.00;100072.97;5059523;28;20025;-63
2022/09/29 03:24:44;;;;;;;22.65;14.35;;;;;;;6.52;100.00;100064.25;5030673;28;20057;-62
2022/09/29 03:27:09;;;;;;;21.90;13.48;;;;;;;6.51;100.00;100073.00;5030242;28;20116;-62
2022/09/29 03:29:35;;;;;;;21.38;13.75;;;;;;;6.50;100.00;100070.44;5029789;28;20045;-62
2022/09/29 03:32:01;;;;;;;21.63;14.60;;;;;;;6.50;100.00;100068.66;5029901;28;20030;-62
2022/09/29 03:34:27;;;;;;;23.27;13.82;;;;;;;6.48;100.00;100073.09;5030342;28;20155;-61
2022/09/29 03:36:52;;;;;;;20.42;13.40;;;;;;;6.48;100.00;100072.22;5028723;28;20031;-62
2022/09/29 03:39:18;;;;;;;24.45;14.65;;;;;;;6.47;100.00;100075.75;5030118;28;20036;-64
2022/09/29 03:41:43;;;;;;;29.27;15.57;;;;;;;6.47;100.00;100076.59;5025526;28;20076;-62
2022/09/29 03:44:08;;;;;;;24.95;13.82;;;;;;;6.47;100.00;100075.75;5029241;28;20025;-61
2022/09/29 03:46:34;;;;;;;22.65;14.13;;;;;;;6.44;100.00;100076.69;5026751;28;20033;-62
2022/09/29 03:48:59;;;;;;;24.70;15.32;;;;;;;6.46;100.00;100080.13;5010267;28;20030;-61
2022/09/29 03:51:24;;;;;;;21.58;13.23;;;;;;;6.44;100.00;100076.69;5010313;28;20030;-61
2022/09/29 03:53:50;;;;;;;22.58;14.20;;;;;;;6.45;100.00;100081.88;5029037;28;20110;-62
2022/09/29 03:56:15;;;;;;;21.67;14.15;;;;;;;6.42;100.00;100079.34;5031955;28;20018;-63
2022/09/29 03:58:41;;;;;;;23.10;14.70;;;;;;;6.42;100.00;100079.34;5028162;28;20026;-61
2022/09/29 04:01:06;;;;;;;21.90;13.52;;;;;;;6.42;100.00;100079.34;5029934;28;20025;-62
2022/09/29 04:03:31;;;;;;;23.13;14.27;;;;;;;6.42;100.00;100079.34;5025730;28;20060;-62
2022/09/29 04:05:57;;;;;;;22.52;13.70;;;;;;;6.41;100.00;100080.25;5029750;28;20452;-62
2022/09/29 04:08:22;;;;;;;20.08;12.15;;;;;;;6.37;100.00;100076.03;5023119;28;20069;-61
2022/09/29 04:10:47;;;;;;;24.58;14.02;;;;;;;6.35;100.00;100077.81;5010100;28;20116;-64
2022/09/29 04:13:13;;;;;;;18.65;11.73;;;;;;;6.32;100.00;100078.75;5011591;28;20025;-62
2022/09/29 04:15:38;;;;;;;17.90;12.48;;;;;;;6.32;100.00;100080.50;5028184;28;20048;-62
2022/09/29 04:18:05;;;;;;;20.38;14.48;;;;;;;6.34;100.00;100075.22;5027697;28;20083;-61
2022/09/29 04:20:30;;;;;;;23.02;13.43;;;;;;;6.32;100.00;100086.63;5024998;28;20036;-61
2022/09/29 04:22:56;;;;;;;25.60;14.45;;;;;;;6.31;100.00;100092.75;5027122;28;20021;-61
2022/09/29 04:25:21;;;;;;;25.08;14.15;;;;;;;6.30;100.00;100093.63;5027979;28;20037;-61
2022/09/29 04:27:46;;;;;;;21.67;14.05;;;;;;;6.28;100.00;100091.97;5029265;28;20490;-61
2022/09/29 04:30:12;;;;;;;24.60;14.52;;;;;;;6.25;100.00;100087.69;5028892;28;20034;-61
2022/09/29 04:32:37;;;;;;;22.20;14.88;;;;;;;6.23;100.00;100094.72;5029378;28;20038;-62
2022/09/29 04:35:03;;;;;;;22.52;14.20;;;;;;;6.20;100.00;100094.78;5028698;28;20088;-61
2022/09/29 04:37:28;;;;;;;22.85;13.75;;;;;;;6.16;100.00;100096.66;5029141;28;20021;-61
2022/09/29 04:39:54;;;;;;;23.25;13.68;;;;;;;6.12;100.00;100095.03;5028733;28;20443;-61
2022/09/29 04:42:20;;;;;;;22.33;13.30;;;;;;;6.12;100.00;100092.41;5026861;28;20049;-60
2022/09/29 04:44:45;;;;;;;27.73;13.73;;;;;;;6.12;100.00;100097.66;5026182;28;20025;-61
2022/09/29 04:47:11;;;;;;;28.73;15.10;;;;;;;6.16;100.00;100098.41;5028622;28;20029;-61
2022/09/29 04:49:36;;;;;;;23.70;14.68;;;;;;;6.16;100.00;100095.78;5028537;28;20494;-61
2022/09/29 04:52:02;;;;;;;26.27;15.13;;;;;;;6.16;100.00;100109.75;5028436;28;20037;-61
2022/09/29 04:54:32;;;;;;;24.58;13.90;;;;;;;6.13;100.00;100099.34;5028169;28;20025;-61
2022/09/29 04:56:58;;;;;;;26.17;15.68;;;;;;;6.11;100.00;100105.53;5028876;28;20037;-62
2022/09/29 04:59:23;;;;;;;21.85;13.50;;;;;;;6.07;100.00;100116.06;5023929;28;20083;-63
2022/09/29 05:01:49;;;;;;;19.10;13.88;;;;;;;6.03;100.00;100124.88;5027771;28;20037;-61
2022/09/29 05:04:14;;;;;;;23.98;14.88;;;;;;;6.06;100.00;100129.19;5029010;28;20025;-60
2022/09/29 05:06:40;;;;;;;24.13;14.15;;;;;;;6.05;100.00;100132.72;5027317;28;20031;-61
2022/09/29 05:09:05;;;;;;;25.30;15.07;;;;;;;6.05;100.00;100130.94;5028904;28;20045;-61
2022/09/29 05:11:30;;;;;;;27.60;15.20;;;;;;;6.04;100.00;100124.00;5025188;28;20021;-61
2022/09/29 05:13:56;;;;;;;25.00;15.52;;;;;;;6.03;100.00;100130.13;5028910;28;20049;-62
2022/09/29 05:16:22;;;;;;;25.15;15.75;;;;;;;6.07;100.00;100139.63;5026324;28;20044;-63
2022/09/29 05:18:47;;;;;;;20.67;13.93;;;;;;;6.05;100.00;100143.19;5028614;28;20029;-62
2022/09/29 05:21:12;;;;;;;34.22;17.08;;;;;;;6.06;100.00;100145.72;5027389;28;20029;-61
2022/09/29 05:23:38;;;;;;;19.65;13.02;;;;;;;6.04;100.00;100142.31;5027445;28;20114;-63
2022/09/29 05:26:05;;;;;;;21.52;14.35;;;;;;;6.00;100.00;100147.63;5026967;28;20091;-61
2022/09/29 05:28:31;;;;;;;27.30;15.82;;;;;;;6.00;100.00;100153.72;5025043;28;20056;-62
2022/09/29 05:31:01;;;;;;;26.13;13.73;;;;;;;5.98;100.00;100147.66;5028018;28;20658;-61
2022/09/29 05:33:26;;;;;;;19.38;13.35;;;;;;;5.99;100.00;100154.59;5025693;28;20032;-62
2022/09/29 05:35:51;;;;;;;29.65;14.50;;;;;;;5.96;100.00;100154.69;5027806;28;20376;-62
2022/09/29 05:38:17;;;;;;;27.35;14.60;;;;;;;5.98;100.00;100152.03;5026730;28;20026;-62
2022/09/29 05:40:42;;;;;;;22.60;13.98;;;;;;;5.97;100.00;100153.81;5027285;28;20032;-63
2022/09/29 05:43:07;;;;;;;25.20;14.15;;;;;;;5.98;100.00;100155.50;5024650;28;20495;-60
2022/09/29 05:45:33;;;;;;;24.75;14.45;;;;;;;5.99;100.00;100159.84;5026563;28;20527;-60
2022/09/29 05:47:58;;;;;;;27.10;13.75;;;;;;;5.98;100.00;100158.13;5025618;28;20054;-61
2022/09/29 05:50:23;;;;;;;25.40;13.35;;;;;;;6.00;100.00;100156.34;5027323;28;20029;-61
2022/09/29 05:52:50;;;;;;;23.45;14.93;;;;;;;6.04;100.00;100163.25;5026389;28;20097;-61
2022/09/29 05:55:16;;;;;;;26.98;14.68;;;;;;;6.06;100.00;100165.81;5026973;28;20022;-61
2022/09/29 05:57:41;;;;;;;26.70;15.07;;;;;;;6.07;100.00;100164.91;5026612;28;20028;-62
2022/09/29 06:00:07;;;;;;;26.30;15.40;;;;;;;6.09;100.00;100164.88;5024902;28;20065;-62
2022/09/29 06:02:33;;;;;;;24.08;14.95;;;;;;;6.10;100.00;100171.81;5026545;28;20650;-62
2022/09/29 06:04:59;;;;;;;30.88;16.25;;;;;;;6.16;100.00;100161.19;5025587;28;20025;-62
2022/09/29 06:07:24;;;;;;;30.77;16.83;;;;;;;6.22;100.00;100162.78;5025565;28;20025;-61
2022/09/29 06:09:49;;;;;;;32.08;18.25;;;;;;;6.21;100.00;100161.94;5024443;28;20091;-62
2022/09/29 06:12:15;;;;;;;26.90;17.42;;;;;;;6.25;100.00;100163.56;5028283;28;20132;-61
2022/09/29 06:14:40;;;;;;;35.55;18.15;;;;;;;6.27;100.00;100174.00;5024418;28;20082;-61
2022/09/29 06:17:05;;;;;;;29.25;17.35;;;;;;;6.28;100.00;100176.56;5026601;28;20022;-61
2022/09/29 06:19:31;;;;;;;27.80;16.88;;;;;;;6.34;100.00;100179.91;5023557;28;20028;-60
2022/09/29 06:21:56;;;;;;;30.70;17.75;;;;;;;6.37;100.00;100179.81;5057753;28;20052;-60
2022/09/29 06:24:21;;;;;;;30.25;17.60;;;;;;;6.37;100.00;100175.47;5023033;28;20029;-60
2022/09/29 06:26:47;;;;;;;30.92;17.10;;;;;;;6.40;100.00;100180.63;5026168;28;20034;-61
2022/09/29 06:29:14;;;;;;;33.03;17.67;;;;;;;6.45;100.00;100183.09;5023575;28;20049;-62
2022/09/29 06:31:39;;;;;;;28.52;17.67;;;;;;;6.49;100.00;100176.88;5025679;28;20116;-59
2022/09/29 06:34:04;;;;;;;33.85;18.80;;;;;;;6.56;100.00;100188.03;5025209;28;20441;-61
2022/09/29 06:39:25;;;;;;;34.45;18.33;;;;;;;6.66;100.00;100186.03;5053667;28;20487;-61
2022/09/29 06:41:53;;;;;;;33.42;19.77;;;;;;;6.76;100.00;100195.34;5027996;28;20021;-59
2022/09/29 06:44:19;;;;;;;39.90;20.42;;;;;;;6.81;100.00;100190.81;5024639;28;20063;-61
2022/09/29 06:46:44;;;;;;;34.85;18.80;;;;;;;6.89;100.00;100187.97;5020042;28;20045;-62
2022/09/29 06:49:14;;;;;;;40.28;22.00;;;;;;;6.89;100.00;100205.47;5025892;28;20107;-62
2022/09/29 06:51:40;;;;;;;34.63;21.02;;;;;;;6.96;100.00;100199.16;5025755;28;20116;-61
2022/09/29 06:54:05;;;;;;;42.13;20.65;;;;;;;7.04;100.00;100202.38;5024746;28;20167;-61
2022/09/29 06:56:30;;;;;;;46.63;24.25;;;;;;;7.10;100.00;100205.75;5024789;28;20025;-63
2022/09/29 06:58:56;;;;;;;39.20;21.23;;;;;;;7.17;100.00;100205.50;5024135;28;20025;-61
2022/09/29 07:01:21;;;;;;;38.75;21.15;;;;;;;7.26;100.00;100206.13;5024483;28;20009;-60
2022/09/29 07:03:47;;;;;;;36.90;22.00;;;;;;;7.37;100.00;100209.28;5025216;28;20472;-62
2022/09/29 07:06:12;;;;;;;35.92;20.45;;;;;;;7.40;100.00;100208.31;5020632;28;20546;-63
2022/09/29 07:08:38;;;;;;;36.92;20.63;;;;;;;7.43;100.00;100213.47;5024470;28;20064;-62
2022/09/29 07:11:08;;;;;;;41.38;20.92;;;;;;;7.53;100.00;100217.53;5025042;28;20119;-61
2022/09/29 07:13:34;;;;;;;39.05;20.45;;;;;;;7.58;100.00;100212.13;5021647;28;20471;-61
2022/09/29 07:16:05;;;;;;;44.65;22.73;;;;;;;7.65;100.00;100210.19;5024716;28;20021;-62
2022/09/29 07:18:33;;;;;;;41.50;23.00;;;;;;;7.69;100.00;100212.69;5024018;28;20028;-62
2022/09/29 07:20:58;;;;;;;40.33;21.60;;;;;;;7.74;100.00;100219.53;5025012;28;20029;-60
2022/09/29 07:23:26;;;;;;;39.20;22.20;;;;;;;7.82;100.00;100225.38;5024707;28;20029;-60
2022/09/29 07:25:51;;;;;;;39.45;21.98;;;;;;;7.84;100.00;100224.44;5024239;28;20064;-60
2022/09/29 07:28:17;;;;;;;44.25;23.17;;;;;;;7.96;100.00;100219.69;5024414;28;20387;-60
2022/09/29 07:30:42;;;;;;;47.08;24.85;;;;;;;7.96;100.00;100227.56;5023935;28;20017;-61
2022/09/29 07:33:07;;;;;;;42.35;21.88;;;;;;;8.00;100.00;100229.16;5026017;28;20025;-61
2022/09/29 07:35:33;;;;;;;40.63;23.00;;;;;;;8.11;100.00;100226.19;5024288;28;20033;-62
2022/09/29 07:37:58;;;;;;;41.25;22.38;;;;;;;8.17;100.00;100230.38;5023091;28;20127;-60
2022/09/29 07:40:24;;;;;;;39.90;24.02;;;;;;;8.16;100.00;100233.91;5024697;28;20109;-60
2022/09/29 07:42:50;;;;;;;44.85;24.65;;;;;;;8.26;100.00;100244.94;5023807;28;20025;-62
2022/09/29 07:45:16;;;;;;;38.20;22.85;;;;;;;8.32;100.00;100237.75;5024833;28;20025;-62
2022/09/29 07:47:41;;;;;;;39.53;22.52;;;;;;;8.42;100.00;100234.78;5024202;28;20029;-62
2022/09/29 07:50:07;;;;;;;40.00;22.83;;;;;;;8.51;100.00;100242.34;5024617;28;20029;-60
2022/09/29 07:52:32;;;;;;;40.28;25.17;;;;;;;8.61;100.00;100242.91;5029260;28;20029;-61
2022/09/29 07:54:58;;;;;;;34.83;24.05;;;;;;;8.70;100.00;100249.63;5027211;28;20040;-62
2022/09/29 07:57:23;;;;;;;44.83;23.85;;;;;;;8.77;100.00;100253.75;5028880;28;20017;-61
2022/09/29 07:59:48;;;;;;;38.45;24.10;;;;;;;8.82;100.00;100254.41;5027212;28;20039;-61
2022/09/29 08:02:14;;;;;;;38.47;22.80;;;;;;;8.94;100.00;100253.09;5011332;28;20034;-62
2022/09/29 08:04:39;;;;;;;34.90;22.40;;;;;;;8.93;100.00;100258.41;5008544;28;20026;-60
2022/09/29 08:07:05;;;;;;;32.08;22.42;;;;;;;8.95;100.00;100269.75;5015531;28;20075;-60
2022/09/29 08:09:30;;;;;;;34.05;22.70;;;;;;;9.04;100.00;100269.41;5028176;28;20073;-60
2022/09/29 08:11:55;;;;;;;32.05;21.95;;;;;;;9.17;100.00;100271.56;5027650;28;20087;-60
2022/09/29 08:14:21;;;;;;;35.78;23.08;;;;;;;9.22;100.00;100274.91;5026818;28;20029;-61
2022/09/29 08:16:47;;;;;;;35.85;23.92;;;;;;;9.19;100.00;100282.91;5028224;28;20063;-62
2022/09/29 08:19:12;;;;;;;33.17;22.67;;;;;;;9.19;100.00;100285.53;5026987;28;20028;-62
2022/09/29 08:21:37;;;;;;;35.20;22.60;;;;;;;9.27;100.00;100283.47;5028195;28;20029;-63
2022/09/29 08:24:04;;;;;;;36.10;23.17;;;;;;;9.30;100.00;100291.22;5026107;28;20037;-62
2022/09/29 08:26:34;;;;;;;34.35;22.85;;;;;;;9.33;100.00;100285.84;5028295;28;20112;-61
2022/09/29 08:28:59;;;;;;;39.30;23.48;;;;;;;9.36;100.00;100292.75;5026828;28;20431;-61
2022/09/29 08:31:25;;;;;;;32.28;23.08;;;;;;;9.37;100.00;100304.16;5026484;28;20021;-62
2022/09/29 08:33:50;;;;;;;33.15;22.02;;;;;;;9.38;100.00;100304.09;5027461;28;20029;-61
2022/09/29 08:36:17;;;;;;;31.60;21.88;;;;;;;9.53;100.00;100312.31;5024578;28;20026;-63
2022/09/29 08:38:44;;;;;;;35.53;23.08;;;;;;;9.66;100.00;100320.63;5023443;28;20037;-60
2022/09/29 08:41:28;;;;;;;38.60;23.90;;;;;;;9.69;100.00;100323.97;5027124;28;20036;-61
2022/09/29 08:43:59;;;;;;;29.83;21.13;;;;;;;9.66;100.00;100328.50;5025571;28;20424;-61
2022/09/29 08:46:26;;;;;;;33.97;21.33;;;;;;;9.57;100.00;100327.94;5024363;28;20370;-60
2022/09/29 08:48:52;;;;;;;29.40;21.55;;;;;;;9.71;100.00;100337.94;5024655;28;20021;-61
2022/09/29 08:51:32;;;;;;;35.38;22.45;;;;;;;9.83;100.00;100335.72;5020136;28;20025;-63
2022/09/29 08:54:01;;;;;;;30.27;21.00;;;;;;;10.00;100.00;100332.44;5024872;28;20050;-62
2022/09/29 08:56:26;;;;;;;32.40;22.13;;;;;;;10.11;100.00;100340.75;5026734;28;20029;-61
2022/09/29 08:58:51;;;;;;;30.38;22.25;;;;;;;10.24;100.00;100335.84;5014202;28;20499;-61
2022/09/29 09:01:52;;;;;;;27.60;20.20;;;;;;;10.25;100.00;100339.34;5011997;28;20112;-64
2022/09/29 09:04:20;;;;;;;27.70;19.08;;;;;;;10.35;100.00;100340.69;5018069;28;20519;-64
2022/09/29 09:07:08;;;;;;;27.70;19.00;;;;;;;10.42;100.00;100340.44;5026927;28;20056;-63
2022/09/29 09:09:55;;;;;;;26.15;17.65;;;;;;;10.55;100.00;100344.31;5025384;28;20379;-62
2022/09/29 09:12:32;;;;;;;24.92;18.38;;;;;;;10.69;100.00;100346.34;5026561;28;20017;-63
2022/09/29 09:15:00;;;;;;;24.10;18.08;;;;;;;10.69;100.00;100350.78;5025347;28;20022;-63
2022/09/29 09:17:50;;;;;;;23.20;15.20;;;;;;;10.66;100.00;100348.28;5026724;28;20108;-61
2022/09/29 09:20:43;;;;;;;20.65;14.18;;;;;;;10.80;100.00;100339.75;5025515;28;20018;-61
2022/09/29 09:23:21;;;;;;;19.13;13.70;;;;;;;10.83;100.00;100339.63;5026476;28;20029;-62
2022/09/29 09:26:00;;;;;;;17.97;12.93;;;;;;;10.89;100.00;100342.00;5027532;28;20510;-61
2022/09/29 09:28:30;;;;;;;15.43;12.27;;;;;;;10.94;100.00;100339.19;5009693;28;20029;-62
2022/09/29 09:30:58;;;;;;;17.17;12.02;;;;;;;11.09;100.00;100341.16;5025669;28;20025;-62
2022/09/29 09:33:33;;;;;;;19.90;11.93;;;;;;;11.24;100.00;100346.66;5025401;28;20438;-62
2022/09/29 09:36:12;;;;;;;18.70;12.38;;;;;;;11.45;100.00;100343.97;5024827;28;20243;-63
2022/09/29 09:38:37;;;;;;;;;;;;;;;11.46;100.00;100343.03;5025603;28;20142;-62
2022/09/29 09:41:03;;;;;;;11.53;8.20;;;;;;;11.55;100.00;100344.41;5022603;28;19905;-61
2022/09/29 09:43:37;;;;;;;7.93;6.53;;;;;;;11.63;100.00;100343.13;5023026;28;20116;-61
2022/09/29 09:46:12;;;;;;;7.85;6.57;;;;;;;11.71;100.00;100349.84;5023542;28;20026;-61
2022/09/29 09:48:41;;;;;;;10.25;7.22;;;;;;;11.74;100.00;100358.47;5025506;28;20305;-63
2022/09/29 09:51:36;;;;;;;11.32;6.20;;;;;;;11.89;100.00;100353.38;5026376;28;20439;-63
2022/09/29 09:54:04;;;;;;;7.72;6.68;;;;;;;11.99;100.00;100348.53;5022902;28;20018;-63
2022/09/29 09:56:53;;;;;;;7.38;5.05;;;;;;;11.98;100.00;100352.94;5022495;28;20029;-61
2022/09/29 09:59:30;;;;;;;5.75;4.70;;;;;;;12.18;100.00;100352.94;5024374;28;20069;-63
2022/09/29 10:01:57;;;;;;;4.35;3.90;;;;;;;12.17;100.00;100356.53;5020883;28;20025;-61
2022/09/29 10:04:24;;;;;;;7.63;3.60;;;;;;;12.25;100.00;100357.88;5024111;28;20096;-62
2022/09/29 10:06:50;;;;;;;3.78;3.42;;;;;;;12.30;100.00;100360.28;5026452;28;20376;-61
2022/09/29 10:09:16;;;;;;;5.88;3.65;;;;;;;12.42;99.74;100355.31;5026101;28;20042;-61
2022/09/29 10:11:43;;;;;;;9.93;4.78;;;;;;;12.58;99.09;100350.97;5025407;28;20033;-61
2022/09/29 10:14:20;;;;;;;5.20;4.63;;;;;;;12.65;97.88;100356.84;5023251;28;20021;-60
2022/09/29 10:17:04;;;;;;;5.95;4.28;;;;;;;12.64;98.38;100358.59;5027002;28;20033;-61
2022/09/29 10:19:58;;;;;;;6.00;4.47;;;;;;;12.88;98.75;100352.13;5008044;28;20033;-61
2022/09/29 10:22:25;;;;;;;8.00;4.55;;;;;;;13.06;97.53;100349.50;5025569;28;20033;-60
2022/09/29 10:24:55;;;;;;;9.70;4.35;;;;;;;13.25;96.60;100357.31;5023396;28;20044;-60
2022/09/29 10:27:24;;;;;;;5.47;3.67;;;;;;;13.27;92.20;100353.66;5025083;28;20033;-61
2022/09/29 10:29:51;;;;;;;4.50;3.13;;;;;;;13.22;91.90;100357.47;5023321;28;20048;-62
2022/09/29 10:32:35;;;;;;;6.47;4.00;;;;;;;13.30;90.27;100363.19;5024412;28;20021;-63
2022/09/29 10:35:36;;;;;;;5.00;3.78;;;;;;;13.47;90.18;100358.81;5025741;28;20025;-60
2022/09/29 10:38:16;;;;;;;8.65;3.97;;;;;;;13.70;90.60;100364.69;5022275;28;20037;-61
2022/09/29 10:41:03;;;;;;;3.58;3.22;;;;;;;13.92;90.38;100364.34;5026111;28;20027;-61
2022/09/29 10:43:37;;;;;;;3.85;3.30;;;;;;;14.08;89.75;100361.69;5023618;28;20121;-62
2022/09/29 10:46:04;;;;;;;9.57;3.28;;;;;;;14.31;90.56;100364.84;5025403;28;20072;-61
2022/09/29 10:48:29;;;;;;;6.22;2.92;;;;;;;14.52;88.67;100368.03;5025502;28;20112;-61
2022/09/29 10:50:58;;;;;;;3.55;2.80;;;;;;;14.58;89.01;100368.63;5026375;28;20030;-61
2022/09/29 10:53:35;;;;;;;3.85;3.20;;;;;;;14.51;85.63;100370.78;5024961;28;20021;-62
2022/09/29 10:56:05;;;;;;;6.88;3.40;;;;;;;14.53;86.88;100374.19;5014345;28;20464;-62
2022/09/29 10:58:39;;;;;;;4.68;3.05;;;;;;;14.70;85.93;100370.56;5006395;28;20025;-62
2022/09/29 11:01:11;;;;;;;3.63;3.30;;;;;;;14.94;84.49;100377.16;5012762;28;20025;-61
2022/09/29 11:03:39;;;;;;;2.95;2.67;;;;;;;15.08;82.86;100373.69;5058679;28;20033;-62
2022/09/29 11:06:12;;;;;;;6.10;2.92;;;;;;;15.35;81.92;100378.25;5026678;28;20728;-65
2022/09/29 11:08:57;;;;;;;8.95;2.92;;;;;;;15.44;81.77;100377.69;5026388;28;20041;-62
2022/09/29 11:11:45;;;;;;;3.45;2.40;;;;;;;15.65;81.23;100371.97;5027319;28;20096;-60
2022/09/29 11:14:24;;;;;;;3.53;2.28;;;;;;;15.58;80.33;100376.81;5019060;28;20117;-61
2022/09/29 11:16:58;;;;;;;3.83;2.42;;;;;;;15.90;78.17;100381.88;5027139;28;20029;-61
2022/09/29 11:19:24;;;;;;;2.88;1.90;;;;;;;16.12;76.46;100382.34;5025313;28;20038;-61
2022/09/29 11:21:53;;;;;;;2.17;1.50;;;;;;;16.28;75.48;100384.84;5028026;28;20029;-61
2022/09/29 11:24:37;;;;;;;2.00;1.65;;;;;;;16.23;73.57;100386.97;5024279;28;20028;-63
2022/09/29 11:27:17;;;;;;;2.67;1.50;;;;;;;15.99;73.49;100385.81;5029279;28;20503;-60
2022/09/29 11:30:05;;;;;;;3.47;1.70;;;;;;;15.80;77.11;100380.78;5027996;28;20684;-60
2022/09/29 11:32:30;;;;;;;4.90;2.20;;;;;;;15.90;77.14;100381.06;5030365;28;20029;-62